CEB638 RPVP-RPLL
Flight info
| Callsign | CEB638 |
|---|---|
| Flight time | 1h 5m |
| Altitude | 39000 |
| Route | DABOY3W DABOY W281 LEGED N884 LUBAN LUBAN1A |
| Aircraft | A20N/M-SDE2E3FGHIRWXY/LB1 |
Departure
| Time | 2026-04-24 00:56 |
|---|---|
| Airport | Puerto Princesa International Airport / PAF Antonio Bautista Air Base (RPVP) |
Arrival
| Time | 2026-04-24 02:01 |
|---|---|
| Airport | Ninoy Aquino International Airport (RPLL) |
| Time | Latitude | Longitude | Altitude | Speed | Heading |
|---|---|---|---|---|---|
| 2026-04-24 00:33 | 9.74512 | 118.74998 | 76 ft | 0 kts | 2° |
| 2026-04-24 00:41 | 9.74506 | 118.74997 | 76 ft | 2 kts | 2° |
| 2026-04-24 00:42 | 9.74491 | 118.74996 | 76 ft | 2 kts | 2° |
| 2026-04-24 00:42 | 9.74476 | 118.74995 | 76 ft | 2 kts | 2° |
| 2026-04-24 00:42 | 9.74460 | 118.74995 | 76 ft | 2 kts | 2° |
| 2026-04-24 00:42 | 9.74445 | 118.74994 | 76 ft | 2 kts | 2° |
| 2026-04-24 00:43 | 9.74431 | 118.74992 | 76 ft | 2 kts | 29° |
| 2026-04-24 00:43 | 9.74420 | 118.74983 | 76 ft | 2 kts | 64° |
| 2026-04-24 00:43 | 9.74416 | 118.74971 | 76 ft | 0 kts | 89° |
| 2026-04-24 00:43 | 9.74417 | 118.74963 | 76 ft | 0 kts | 93° |
| 2026-04-24 00:48 | 9.74417 | 118.74964 | 76 ft | 0 kts | 93° |
| 2026-04-24 00:48 | 9.74416 | 118.74982 | 76 ft | 5 kts | 93° |
| 2026-04-24 00:48 | 9.74414 | 118.75024 | 76 ft | 6 kts | 92° |
| 2026-04-24 00:48 | 9.74412 | 118.75072 | 76 ft | 7 kts | 92° |
| 2026-04-24 00:49 | 9.74410 | 118.75127 | 76 ft | 8 kts | 92° |
| 2026-04-24 00:49 | 9.74407 | 118.75188 | 76 ft | 9 kts | 93° |
| 2026-04-24 00:49 | 9.74398 | 118.75241 | 76 ft | 7 kts | 124° |
| 2026-04-24 00:49 | 9.74346 | 118.75255 | 76 ft | 8 kts | 183° |
| 2026-04-24 00:50 | 9.74282 | 118.75252 | 76 ft | 9 kts | 179° |
| 2026-04-24 00:50 | 9.74234 | 118.75292 | 76 ft | 10 kts | 103° |
| 2026-04-24 00:50 | 9.74230 | 118.75369 | 76 ft | 11 kts | 92° |
| 2026-04-24 00:50 | 9.74227 | 118.75451 | 76 ft | 11 kts | 92° |
| 2026-04-24 00:51 | 9.74223 | 118.75536 | 76 ft | 12 kts | 93° |
| 2026-04-24 00:51 | 9.74219 | 118.75626 | 76 ft | 13 kts | 92° |
| 2026-04-24 00:51 | 9.74215 | 118.75719 | 76 ft | 13 kts | 92° |
| 2026-04-24 00:51 | 9.74211 | 118.75816 | 76 ft | 13 kts | 93° |
| 2026-04-24 00:52 | 9.74206 | 118.75928 | 76 ft | 17 kts | 92° |
| 2026-04-24 00:52 | 9.74200 | 118.76063 | 76 ft | 19 kts | 92° |
| 2026-04-24 00:52 | 9.74195 | 118.76202 | 76 ft | 19 kts | 93° |
| 2026-04-24 00:52 | 9.74187 | 118.76337 | 76 ft | 19 kts | 92° |
| 2026-04-24 00:53 | 9.74182 | 118.76472 | 76 ft | 18 kts | 92° |
| 2026-04-24 00:53 | 9.74177 | 118.76601 | 76 ft | 18 kts | 93° |
| 2026-04-24 00:53 | 9.74171 | 118.76732 | 76 ft | 18 kts | 92° |
| 2026-04-24 00:53 | 9.74166 | 118.76849 | 76 ft | 10 kts | 91° |
| 2026-04-24 00:54 | 9.74194 | 118.76917 | 76 ft | 11 kts | 57° |
| 2026-04-24 00:54 | 9.74218 | 118.76972 | 76 ft | 8 kts | 85° |
| 2026-04-24 00:54 | 9.74215 | 118.77028 | 76 ft | 7 kts | 110° |
| 2026-04-24 00:54 | 9.74174 | 118.77046 | 76 ft | 5 kts | 187° |
| 2026-04-24 00:55 | 9.74158 | 118.77020 | 76 ft | 5 kts | 269° |
| 2026-04-24 00:55 | 9.74160 | 118.76987 | 76 ft | 5 kts | 272° |
| 2026-04-24 00:55 | 9.74168 | 118.76807 | 76 ft | 60 kts | 273° |
| 2026-04-24 00:55 | 9.74196 | 118.76138 | 76 ft | 127 kts | 273° |
| 2026-04-24 00:56 | 9.74245 | 118.75075 | 295 ft | 161 kts | 274° |
| 2026-04-24 00:56 | 9.74324 | 118.73952 | 907 ft | 163 kts | 281° |
| 2026-04-24 00:56 | 9.74904 | 118.72997 | 1565 ft | 166 kts | 330° |
| 2026-04-24 00:56 | 9.76042 | 118.72841 | 2098 ft | 177 kts | 11° |
| 2026-04-24 00:57 | 9.77266 | 118.73260 | 2500 ft | 195 kts | 18° |
| 2026-04-24 00:57 | 9.78587 | 118.73751 | 2899 ft | 212 kts | 17° |
| 2026-04-24 00:57 | 9.81614 | 118.74778 | 4145 ft | 233 kts | 15° |
| 2026-04-24 00:58 | 9.83156 | 118.75272 | 4954 ft | 235 kts | 15° |
| 2026-04-24 00:58 | 9.84734 | 118.75768 | 5743 ft | 238 kts | 15° |
| 2026-04-24 00:58 | 9.86323 | 118.76263 | 6527 ft | 242 kts | 15° |
| 2026-04-24 00:58 | 9.87923 | 118.76760 | 7305 ft | 245 kts | 15° |
| 2026-04-24 00:59 | 9.89591 | 118.77131 | 7933 ft | 254 kts | 3° |
| 2026-04-24 00:59 | 9.91407 | 118.77125 | 8398 ft | 270 kts | 353° |
| 2026-04-24 00:59 | 9.93327 | 118.76925 | 8877 ft | 287 kts | 351° |
| 2026-04-24 00:59 | 9.95324 | 118.76690 | 9571 ft | 295 kts | 351° |
| 2026-04-24 01:00 | 9.97359 | 118.76459 | 10373 ft | 299 kts | 352° |
| 2026-04-24 01:00 | 9.99455 | 118.76229 | 10940 ft | 311 kts | 352° |
| 2026-04-24 01:00 | 10.01614 | 118.76000 | 11619 ft | 318 kts | 352° |
| 2026-04-24 01:00 | 10.03828 | 118.75770 | 12397 ft | 322 kts | 352° |
| 2026-04-24 01:01 | 10.06078 | 118.75537 | 13154 ft | 326 kts | 352° |
| 2026-04-24 01:01 | 10.08350 | 118.75304 | 13890 ft | 330 kts | 353° |
| 2026-04-24 01:01 | 10.10643 | 118.75068 | 14613 ft | 335 kts | 353° |
| 2026-04-24 01:01 | 10.12987 | 118.74992 | 15318 ft | 340 kts | 1° |
| 2026-04-24 01:02 | 10.15343 | 118.75271 | 16023 ft | 345 kts | 11° |
| 2026-04-24 01:02 | 10.17677 | 118.75811 | 16799 ft | 346 kts | 13° |
| 2026-04-24 01:02 | 10.20037 | 118.76417 | 17520 ft | 349 kts | 14° |
| 2026-04-24 01:02 | 10.22389 | 118.77028 | 18187 ft | 353 kts | 14° |
| 2026-04-24 01:03 | 10.24763 | 118.77638 | 18839 ft | 356 kts | 14° |
| 2026-04-24 01:03 | 10.27182 | 118.78252 | 19484 ft | 359 kts | 14° |
| 2026-04-24 01:03 | 10.29627 | 118.78869 | 20123 ft | 362 kts | 14° |
| 2026-04-24 01:03 | 10.32073 | 118.79485 | 20750 ft | 365 kts | 14° |
| 2026-04-24 01:04 | 10.34546 | 118.80106 | 21372 ft | 368 kts | 14° |
| 2026-04-24 01:04 | 10.37063 | 118.80739 | 21991 ft | 371 kts | 14° |
| 2026-04-24 01:04 | 10.39581 | 118.81326 | 22593 ft | 375 kts | 12° |
| 2026-04-24 01:04 | 10.42177 | 118.81760 | 23192 ft | 378 kts | 8° |
| 2026-04-24 01:05 | 10.44787 | 118.82014 | 23773 ft | 381 kts | 5° |
| 2026-04-24 01:05 | 10.47441 | 118.82204 | 24342 ft | 383 kts | 5° |
| 2026-04-24 01:05 | 10.50126 | 118.82385 | 24899 ft | 386 kts | 5° |
| 2026-04-24 01:05 | 10.52813 | 118.82568 | 25438 ft | 389 kts | 5° |
| 2026-04-24 01:06 | 10.55520 | 118.82753 | 25964 ft | 391 kts | 5° |
| 2026-04-24 01:06 | 10.58236 | 118.82941 | 26477 ft | 393 kts | 5° |
| 2026-04-24 01:06 | 10.60982 | 118.83132 | 26979 ft | 396 kts | 5° |
| 2026-04-24 01:06 | 10.63725 | 118.83324 | 27465 ft | 398 kts | 5° |
| 2026-04-24 01:07 | 10.66508 | 118.83520 | 27936 ft | 400 kts | 5° |
| 2026-04-24 01:07 | 10.69275 | 118.83714 | 28382 ft | 402 kts | 5° |
| 2026-04-24 01:07 | 10.72068 | 118.83910 | 28813 ft | 404 kts | 5° |
| 2026-04-24 01:07 | 10.74895 | 118.84108 | 29230 ft | 406 kts | 5° |
| 2026-04-24 01:08 | 10.77745 | 118.84309 | 29631 ft | 408 kts | 5° |
| 2026-04-24 01:08 | 10.80604 | 118.84509 | 30006 ft | 410 kts | 5° |
| 2026-04-24 01:08 | 10.83475 | 118.84712 | 30261 ft | 415 kts | 5° |
| 2026-04-24 01:08 | 10.86372 | 118.84915 | 30546 ft | 418 kts | 5° |
| 2026-04-24 01:09 | 10.89291 | 118.85120 | 30878 ft | 420 kts | 5° |
| 2026-04-24 01:09 | 10.92205 | 118.85327 | 31261 ft | 419 kts | 5° |
| 2026-04-24 01:09 | 10.95136 | 118.85535 | 31721 ft | 417 kts | 4° |
| 2026-04-24 01:09 | 10.98011 | 118.85736 | 32059 ft | 417 kts | 4° |
| 2026-04-24 01:10 | 11.00837 | 118.85933 | 32323 ft | 419 kts | 4° |
| 2026-04-24 01:10 | 11.03871 | 118.86144 | 32594 ft | 421 kts | 4° |
| 2026-04-24 01:10 | 11.06852 | 118.86350 | 32852 ft | 423 kts | 4° |
| 2026-04-24 01:10 | 11.09831 | 118.86557 | 33109 ft | 424 kts | 4° |
| 2026-04-24 01:11 | 11.12799 | 118.86764 | 33362 ft | 426 kts | 4° |
| 2026-04-24 01:11 | 11.15798 | 118.86978 | 33607 ft | 427 kts | 4° |
| 2026-04-24 01:11 | 11.18744 | 118.87189 | 33901 ft | 427 kts | 4° |
| 2026-04-24 01:11 | 11.21696 | 118.87399 | 34235 ft | 426 kts | 4° |
| 2026-04-24 01:12 | 11.24664 | 118.87611 | 34562 ft | 424 kts | 4° |
| 2026-04-24 01:12 | 11.27597 | 118.87818 | 34863 ft | 423 kts | 4° |
| 2026-04-24 01:12 | 11.30550 | 118.88027 | 35156 ft | 423 kts | 4° |
| 2026-04-24 01:12 | 11.33482 | 118.88234 | 35437 ft | 422 kts | 4° |
| 2026-04-24 01:13 | 11.36442 | 118.88443 | 35712 ft | 421 kts | 4° |
| 2026-04-24 01:13 | 11.39383 | 118.88650 | 35983 ft | 420 kts | 4° |
| 2026-04-24 01:13 | 11.42318 | 118.88857 | 36243 ft | 419 kts | 4° |
| 2026-04-24 01:13 | 11.45242 | 118.89064 | 36484 ft | 419 kts | 4° |
| 2026-04-24 01:14 | 11.48184 | 118.89272 | 36708 ft | 419 kts | 4° |
| 2026-04-24 01:14 | 11.51099 | 118.89478 | 36917 ft | 419 kts | 4° |
| 2026-04-24 01:14 | 11.54021 | 118.89685 | 37121 ft | 418 kts | 4° |
| 2026-04-24 01:14 | 11.56946 | 118.89891 | 37315 ft | 418 kts | 4° |
| 2026-04-24 01:15 | 11.59872 | 118.90098 | 37505 ft | 418 kts | 4° |
| 2026-04-24 01:15 | 11.62777 | 118.90303 | 37688 ft | 418 kts | 4° |
| 2026-04-24 01:15 | 11.65705 | 118.90510 | 37867 ft | 418 kts | 4° |
| 2026-04-24 01:15 | 11.68643 | 118.90717 | 38044 ft | 418 kts | 4° |
| 2026-04-24 01:16 | 11.71556 | 118.90923 | 38216 ft | 418 kts | 4° |
| 2026-04-24 01:16 | 11.74446 | 118.91127 | 38380 ft | 418 kts | 4° |
| 2026-04-24 01:16 | 11.77384 | 118.91335 | 38519 ft | 418 kts | 4° |
| 2026-04-24 01:16 | 11.80297 | 118.91541 | 38635 ft | 419 kts | 4° |
| 2026-04-24 01:17 | 11.83237 | 118.91748 | 38752 ft | 420 kts | 4° |
| 2026-04-24 01:17 | 11.86159 | 118.91955 | 38867 ft | 421 kts | 4° |
| 2026-04-24 01:17 | 11.89069 | 118.92161 | 38968 ft | 422 kts | 4° |
| 2026-04-24 01:18 | 11.94992 | 118.92580 | 38973 ft | 422 kts | 4° |
| 2026-04-24 01:18 | 12.00850 | 118.92995 | 38976 ft | 422 kts | 4° |
| 2026-04-24 01:19 | 12.06737 | 118.93412 | 38977 ft | 422 kts | 3° |
| 2026-04-24 01:19 | 12.12545 | 118.93823 | 38977 ft | 422 kts | 3° |
| 2026-04-24 01:20 | 12.18429 | 118.94237 | 38977 ft | 421 kts | 3° |
| 2026-04-24 01:20 | 12.24326 | 118.94654 | 38977 ft | 421 kts | 3° |
| 2026-04-24 01:21 | 12.30201 | 118.95071 | 38977 ft | 421 kts | 3° |
| 2026-04-24 01:21 | 12.36079 | 118.95488 | 38977 ft | 421 kts | 3° |
| 2026-04-24 01:22 | 12.41997 | 118.95908 | 38977 ft | 421 kts | 3° |
| 2026-04-24 01:22 | 12.47898 | 118.96327 | 38977 ft | 421 kts | 3° |
| 2026-04-24 01:23 | 12.53757 | 118.96743 | 38977 ft | 420 kts | 3° |
| 2026-04-24 01:23 | 12.59611 | 118.97159 | 38977 ft | 420 kts | 3° |
| 2026-04-24 01:24 | 12.65442 | 118.97573 | 38977 ft | 420 kts | 3° |
| 2026-04-24 01:24 | 12.71364 | 118.97993 | 38977 ft | 420 kts | 3° |
| 2026-04-24 01:25 | 12.77158 | 118.98405 | 38977 ft | 420 kts | 3° |
| 2026-04-24 01:25 | 12.82982 | 118.98817 | 38977 ft | 420 kts | 3° |
| 2026-04-24 01:26 | 12.88780 | 118.99229 | 38978 ft | 420 kts | 3° |
| 2026-04-24 01:26 | 12.94593 | 118.99751 | 38974 ft | 421 kts | 9° |
| 2026-04-24 01:27 | 13.00156 | 119.01542 | 38974 ft | 422 kts | 25° |
| 2026-04-24 01:27 | 13.05045 | 119.04810 | 38973 ft | 423 kts | 41° |
| 2026-04-24 01:28 | 13.08967 | 119.09259 | 38975 ft | 424 kts | 52° |
| 2026-04-24 01:28 | 13.12592 | 119.14061 | 38976 ft | 426 kts | 52° |
| 2026-04-24 01:29 | 13.16210 | 119.18845 | 38977 ft | 427 kts | 52° |
| 2026-04-24 01:29 | 13.19845 | 119.23647 | 38977 ft | 427 kts | 52° |
| 2026-04-24 01:30 | 13.23498 | 119.28474 | 38977 ft | 427 kts | 52° |
| 2026-04-24 01:30 | 13.27110 | 119.33249 | 38977 ft | 427 kts | 52° |
| 2026-04-24 01:31 | 13.30750 | 119.38063 | 38977 ft | 428 kts | 52° |
| 2026-04-24 01:31 | 13.34395 | 119.42887 | 38970 ft | 428 kts | 52° |
| 2026-04-24 01:31 | 13.36205 | 119.45283 | 38635 ft | 430 kts | 52° |
| 2026-04-24 01:32 | 13.38056 | 119.47734 | 37729 ft | 438 kts | 52° |
| 2026-04-24 01:32 | 13.39961 | 119.50258 | 36860 ft | 442 kts | 52° |
| 2026-04-24 01:32 | 13.41857 | 119.52770 | 36088 ft | 444 kts | 52° |
| 2026-04-24 01:32 | 13.43767 | 119.55302 | 35387 ft | 444 kts | 52° |
| 2026-04-24 01:33 | 13.45655 | 119.57806 | 34730 ft | 443 kts | 52° |
| 2026-04-24 01:33 | 13.47529 | 119.60292 | 34077 ft | 442 kts | 52° |
| 2026-04-24 01:33 | 13.49434 | 119.62818 | 33402 ft | 441 kts | 52° |
| 2026-04-24 01:33 | 13.51313 | 119.65312 | 32743 ft | 440 kts | 52° |
| 2026-04-24 01:34 | 13.53209 | 119.67841 | 32197 ft | 436 kts | 52° |
| 2026-04-24 01:34 | 13.55069 | 119.70325 | 31780 ft | 430 kts | 52° |
| 2026-04-24 01:34 | 13.56889 | 119.72752 | 31350 ft | 424 kts | 52° |
| 2026-04-24 01:34 | 13.58690 | 119.75150 | 30923 ft | 419 kts | 52° |
| 2026-04-24 01:35 | 13.60473 | 119.77522 | 30506 ft | 413 kts | 52° |
| 2026-04-24 01:35 | 13.62223 | 119.79847 | 30089 ft | 409 kts | 52° |
| 2026-04-24 01:35 | 13.63952 | 119.82146 | 29667 ft | 404 kts | 52° |
| 2026-04-24 01:35 | 13.65652 | 119.84405 | 29255 ft | 400 kts | 52° |
| 2026-04-24 01:36 | 13.67370 | 119.86688 | 28831 ft | 396 kts | 52° |
| 2026-04-24 01:36 | 13.69043 | 119.88913 | 28423 ft | 393 kts | 52° |
| 2026-04-24 01:36 | 13.70721 | 119.91144 | 28007 ft | 389 kts | 52° |
| 2026-04-24 01:36 | 13.72347 | 119.93305 | 27601 ft | 386 kts | 52° |
| 2026-04-24 01:37 | 13.73977 | 119.95473 | 27195 ft | 383 kts | 52° |
| 2026-04-24 01:37 | 13.75596 | 119.97627 | 26784 ft | 380 kts | 52° |
| 2026-04-24 01:37 | 13.77213 | 119.99779 | 26377 ft | 377 kts | 52° |
| 2026-04-24 01:37 | 13.78803 | 120.01894 | 25968 ft | 374 kts | 51° |
| 2026-04-24 01:38 | 13.80371 | 120.03982 | 25569 ft | 371 kts | 51° |
| 2026-04-24 01:38 | 13.81943 | 120.06074 | 25168 ft | 368 kts | 51° |
| 2026-04-24 01:38 | 13.83515 | 120.08164 | 24766 ft | 370 kts | 51° |
| 2026-04-24 01:38 | 13.85084 | 120.10235 | 24367 ft | 370 kts | 51° |
| 2026-04-24 01:39 | 13.86576 | 120.12409 | 23844 ft | 370 kts | 56° |
| 2026-04-24 01:39 | 13.87916 | 120.14651 | 23329 ft | 369 kts | 58° |
| 2026-04-24 01:39 | 13.89225 | 120.16907 | 22840 ft | 367 kts | 58° |
| 2026-04-24 01:39 | 13.90520 | 120.19157 | 22359 ft | 364 kts | 58° |
| 2026-04-24 01:40 | 13.91787 | 120.21363 | 21888 ft | 362 kts | 58° |
| 2026-04-24 01:40 | 13.93060 | 120.23588 | 21408 ft | 360 kts | 58° |
| 2026-04-24 01:40 | 13.94320 | 120.25793 | 20931 ft | 358 kts | 58° |
| 2026-04-24 01:40 | 13.95579 | 120.28002 | 20453 ft | 356 kts | 58° |
| 2026-04-24 01:41 | 13.96821 | 120.30187 | 19979 ft | 353 kts | 58° |
| 2026-04-24 01:41 | 13.98062 | 120.32373 | 19502 ft | 351 kts | 58° |
| 2026-04-24 01:41 | 13.99286 | 120.34534 | 19030 ft | 349 kts | 58° |
| 2026-04-24 01:41 | 14.00494 | 120.36670 | 18565 ft | 348 kts | 58° |
| 2026-04-24 01:42 | 14.01699 | 120.38805 | 18099 ft | 346 kts | 58° |
| 2026-04-24 01:42 | 14.02897 | 120.40930 | 17633 ft | 344 kts | 58° |
| 2026-04-24 01:42 | 14.04091 | 120.43050 | 17169 ft | 342 kts | 58° |
| 2026-04-24 01:42 | 14.05283 | 120.45170 | 16705 ft | 340 kts | 58° |
| 2026-04-24 01:43 | 14.06465 | 120.47274 | 16243 ft | 338 kts | 58° |
| 2026-04-24 01:43 | 14.07640 | 120.49367 | 15782 ft | 337 kts | 58° |
| 2026-04-24 01:43 | 14.08802 | 120.51440 | 15326 ft | 335 kts | 58° |
| 2026-04-24 01:43 | 14.09953 | 120.53493 | 14872 ft | 333 kts | 58° |
| 2026-04-24 01:44 | 14.11156 | 120.55623 | 14404 ft | 332 kts | 58° |
| 2026-04-24 01:44 | 14.12366 | 120.57751 | 13933 ft | 330 kts | 57° |
| 2026-04-24 01:44 | 14.13570 | 120.59863 | 13468 ft | 328 kts | 57° |
| 2026-04-24 01:44 | 14.14752 | 120.61938 | 13009 ft | 327 kts | 57° |
| 2026-04-24 01:45 | 14.15929 | 120.64001 | 12553 ft | 325 kts | 57° |
| 2026-04-24 01:45 | 14.16966 | 120.65819 | 12150 ft | 324 kts | 58° |
| 2026-04-24 01:45 | 14.18111 | 120.67835 | 11701 ft | 323 kts | 58° |
| 2026-04-24 01:45 | 14.19239 | 120.69817 | 11253 ft | 321 kts | 58° |
| 2026-04-24 01:46 | 14.20368 | 120.71787 | 10809 ft | 320 kts | 58° |
| 2026-04-24 01:46 | 14.21493 | 120.73746 | 10501 ft | 314 kts | 58° |
| 2026-04-24 01:46 | 14.22588 | 120.75644 | 10274 ft | 306 kts | 58° |
| 2026-04-24 01:46 | 14.23683 | 120.77531 | 9890 ft | 303 kts | 58° |
| 2026-04-24 01:47 | 14.24782 | 120.79410 | 9473 ft | 302 kts | 58° |
| 2026-04-24 01:47 | 14.25887 | 120.81285 | 9065 ft | 301 kts | 58° |
| 2026-04-24 01:47 | 14.26982 | 120.83125 | 8661 ft | 299 kts | 58° |
| 2026-04-24 01:47 | 14.28062 | 120.84945 | 8275 ft | 297 kts | 58° |
| 2026-04-24 01:48 | 14.29141 | 120.86731 | 7881 ft | 296 kts | 58° |
| 2026-04-24 01:48 | 14.30256 | 120.88551 | 7481 ft | 294 kts | 57° |
| 2026-04-24 01:48 | 14.31345 | 120.90322 | 7117 ft | 291 kts | 58° |
| 2026-04-24 01:48 | 14.32418 | 120.92065 | 7027 ft | 291 kts | 57° |
| 2026-04-24 01:49 | 14.33499 | 120.93836 | 7020 ft | 292 kts | 58° |
| 2026-04-24 01:49 | 14.34574 | 120.95612 | 7017 ft | 292 kts | 58° |
| 2026-04-24 01:49 | 14.35659 | 120.97392 | 7016 ft | 293 kts | 58° |
| 2026-04-24 01:49 | 14.36752 | 120.99176 | 7015 ft | 293 kts | 57° |
| 2026-04-24 01:50 | 14.37830 | 121.00948 | 7015 ft | 293 kts | 58° |
| 2026-04-24 01:50 | 14.38911 | 121.02729 | 7015 ft | 293 kts | 58° |
| 2026-04-24 01:50 | 14.40019 | 121.04513 | 7015 ft | 292 kts | 57° |
| 2026-04-24 01:50 | 14.41404 | 121.06037 | 6980 ft | 292 kts | 29° |
| 2026-04-24 01:51 | 14.43326 | 121.06600 | 6998 ft | 288 kts | 356° |
| 2026-04-24 01:51 | 14.45225 | 121.06111 | 6931 ft | 284 kts | 329° |
| 2026-04-24 01:51 | 14.46874 | 121.05002 | 6815 ft | 283 kts | 322° |
| 2026-04-24 01:51 | 14.48494 | 121.03794 | 6692 ft | 284 kts | 322° |
| 2026-04-24 01:52 | 14.50046 | 121.02576 | 6558 ft | 281 kts | 313° |
| 2026-04-24 01:52 | 14.51211 | 121.00980 | 6430 ft | 277 kts | 294° |
| 2026-04-24 01:52 | 14.51931 | 120.99134 | 6297 ft | 277 kts | 288° |
| 2026-04-24 01:52 | 14.52558 | 120.97258 | 6140 ft | 275 kts | 287° |
| 2026-04-24 01:53 | 14.53177 | 120.95386 | 5976 ft | 274 kts | 287° |
| 2026-04-24 01:53 | 14.53802 | 120.93523 | 5783 ft | 273 kts | 287° |
| 2026-04-24 01:53 | 14.54427 | 120.91695 | 5524 ft | 271 kts | 288° |
| 2026-04-24 01:53 | 14.55057 | 120.89861 | 5227 ft | 270 kts | 288° |
| 2026-04-24 01:54 | 14.55683 | 120.88044 | 4928 ft | 268 kts | 288° |
| 2026-04-24 01:54 | 14.56307 | 120.86231 | 4633 ft | 265 kts | 288° |
| 2026-04-24 01:54 | 14.56922 | 120.84455 | 4332 ft | 263 kts | 288° |
| 2026-04-24 01:54 | 14.57578 | 120.82704 | 4023 ft | 262 kts | 297° |
| 2026-04-24 01:55 | 14.58795 | 120.81315 | 3722 ft | 260 kts | 327° |
| 2026-04-24 01:55 | 14.60439 | 120.80718 | 3424 ft | 250 kts | 356° |
| 2026-04-24 01:55 | 14.62088 | 120.80949 | 3380 ft | 236 kts | 21° |
| 2026-04-24 01:55 | 14.63431 | 120.81831 | 3323 ft | 220 kts | 47° |
| 2026-04-24 01:56 | 14.64239 | 120.83095 | 3337 ft | 204 kts | 70° |
| 2026-04-24 01:56 | 14.64512 | 120.84463 | 3282 ft | 187 kts | 91° |
| 2026-04-24 01:56 | 14.64345 | 120.85696 | 3187 ft | 163 kts | 111° |
| 2026-04-24 01:56 | 14.63883 | 120.86702 | 3126 ft | 147 kts | 126° |
| 2026-04-24 01:57 | 14.63265 | 120.87496 | 3036 ft | 139 kts | 133° |
| 2026-04-24 01:57 | 14.62609 | 120.88237 | 2959 ft | 138 kts | 134° |
| 2026-04-24 01:57 | 14.61968 | 120.88968 | 2861 ft | 140 kts | 135° |
| 2026-04-24 01:57 | 14.61308 | 120.89728 | 2749 ft | 143 kts | 135° |
| 2026-04-24 01:58 | 14.60650 | 120.90490 | 2499 ft | 139 kts | 134° |
| 2026-04-24 01:58 | 14.60011 | 120.91239 | 2314 ft | 140 kts | 134° |
| 2026-04-24 01:58 | 14.59373 | 120.91989 | 2119 ft | 138 kts | 133° |
| 2026-04-24 01:58 | 14.58739 | 120.92731 | 1945 ft | 136 kts | 132° |
| 2026-04-24 01:59 | 14.58121 | 120.93462 | 1762 ft | 135 kts | 131° |
| 2026-04-24 01:59 | 14.57504 | 120.94199 | 1581 ft | 135 kts | 132° |
| 2026-04-24 01:59 | 14.56892 | 120.94916 | 1406 ft | 134 kts | 132° |
| 2026-04-24 01:59 | 14.56279 | 120.95651 | 1226 ft | 135 kts | 133° |
| 2026-04-24 02:00 | 14.55658 | 120.96379 | 1051 ft | 134 kts | 130° |
| 2026-04-24 02:00 | 14.55044 | 120.97098 | 865 ft | 134 kts | 129° |
| 2026-04-24 02:00 | 14.54440 | 120.97839 | 691 ft | 134 kts | 131° |
| 2026-04-24 02:00 | 14.53872 | 120.98589 | 535 ft | 133 kts | 126° |
| 2026-04-24 02:01 | 14.53317 | 120.99341 | 361 ft | 133 kts | 130° |
| 2026-04-24 02:01 | 14.52698 | 121.00060 | 213 ft | 132 kts | 136° |
| 2026-04-24 02:01 | 14.52050 | 121.00723 | 84 ft | 128 kts | 135° |
| 2026-04-24 02:01 | 14.51595 | 121.01199 | 84 ft | 49 kts | 134° |
| 2026-04-24 02:02 | 14.51450 | 121.01350 | 84 ft | 26 kts | 135° |
| 2026-04-24 02:02 | 14.51327 | 121.01475 | 84 ft | 23 kts | 135° |
| 2026-04-24 02:02 | 14.51221 | 121.01585 | 84 ft | 19 kts | 135° |
| 2026-04-24 02:02 | 14.51128 | 121.01679 | 84 ft | 18 kts | 136° |
| 2026-04-24 02:03 | 14.51031 | 121.01816 | 84 ft | 8 kts | 78° |
| 2026-04-24 02:03 | 14.51071 | 121.01862 | 84 ft | 9 kts | 7° |
| 2026-04-24 02:03 | 14.51128 | 121.01824 | 84 ft | 10 kts | 315° |
| 2026-04-24 02:04 | 14.51177 | 121.01775 | 84 ft | 11 kts | 315° |
| 2026-04-24 02:04 | 14.51237 | 121.01712 | 84 ft | 12 kts | 314° |
| 2026-04-24 02:04 | 14.51298 | 121.01649 | 84 ft | 12 kts | 315° |
| 2026-04-24 02:04 | 14.51360 | 121.01585 | 84 ft | 13 kts | 315° |
| 2026-04-24 02:05 | 14.51426 | 121.01516 | 84 ft | 13 kts | 314° |
| 2026-04-24 02:05 | 14.51494 | 121.01447 | 84 ft | 14 kts | 315° |
| 2026-04-24 02:05 | 14.51566 | 121.01372 | 84 ft | 14 kts | 314° |
| 2026-04-24 02:05 | 14.51637 | 121.01299 | 84 ft | 14 kts | 315° |
| 2026-04-24 02:06 | 14.51709 | 121.01223 | 84 ft | 14 kts | 314° |
| 2026-04-24 02:06 | 14.51783 | 121.01146 | 84 ft | 15 kts | 315° |
| 2026-04-24 02:06 | 14.51860 | 121.01067 | 84 ft | 15 kts | 315° |
| 2026-04-24 02:06 | 14.51936 | 121.00988 | 84 ft | 15 kts | 315° |
| 2026-04-24 02:07 | 14.52012 | 121.00909 | 84 ft | 15 kts | 315° |
| 2026-04-24 02:07 | 14.52090 | 121.00829 | 84 ft | 15 kts | 315° |
| 2026-04-24 02:07 | 14.52146 | 121.00771 | 84 ft | 6 kts | 315° |
| 2026-04-24 02:07 | 14.52183 | 121.00756 | 84 ft | 5 kts | 6° |
| 2026-04-24 02:08 | 14.52218 | 121.00775 | 84 ft | 5 kts | 39° |
| 2026-04-24 02:08 | 14.52246 | 121.00802 | 84 ft | 5 kts | 45° |
| 2026-04-24 02:08 | 14.52270 | 121.00828 | 84 ft | 4 kts | 45° |
| 2026-04-24 02:08 | 14.52284 | 121.00842 | 84 ft | 1 kts | 45° |
| 2026-04-24 02:09 | 14.52286 | 121.00844 | 84 ft | 0 kts | 45° |